Time;durP1;ratioP1;P1;durP2;ratioP2;P2;SDS_P1;SDS_P2;PMS_P1;PMS_P2;Temp;Humidity;BMP_temperature;BMP_pressure;BME280_temperature;BME280_humidity;BME280_pressure;Samples;Min_cycle;Max_cycle;Signal;HPM_P1;HPM_P2
2022/01/27 00:04:18;;;;;;;;;28.00;28.00;14.80;99.90;;;;;;5055964;28;11544;-47
2022/01/27 00:06:49;;;;;;;;;19.75;19.75;14.80;99.90;;;;;;5052855;28;11549;-48
2022/01/27 00:09:42;;;;;;;;;28.25;26.75;14.80;99.90;;;;;;5054444;28;12245;-48
2022/01/27 00:12:16;;;;;;;;;26.50;26.50;14.80;99.90;;;;;;5052745;28;11611;-50
2022/01/27 00:14:57;;;;;;;;;23.75;23.75;14.80;99.90;;;;;;5061420;28;11561;-49
2022/01/27 00:17:31;;;;;;;;;32.25;29.75;14.80;99.90;;;;;;5063605;28;11650;-49
2022/01/27 00:20:02;;;;;;;;;27.50;27.50;14.80;99.90;;;;;;5062657;28;11591;-48
2022/01/27 00:22:32;;;;;;;;;27.00;27.00;14.80;99.90;;;;;;5055654;28;11560;-48
2022/01/27 00:25:05;;;;;;;;;32.00;30.75;14.80;99.90;;;;;;5056169;28;11621;-48
2022/01/27 00:27:36;;;;;;;;;32.25;31.25;14.80;99.90;;;;;;5062055;28;11551;-48
2022/01/27 00:30:09;;;;;;;;;31.75;29.75;14.80;99.90;;;;;;5065564;28;11587;-49
2022/01/27 00:32:40;;;;;;;;;33.50;32.25;14.80;99.90;;;;;;5063370;28;11692;-46
2022/01/27 00:35:12;;;;;;;;;38.25;35.25;14.80;99.90;;;;;;5053650;28;11594;-50
2022/01/27 00:37:42;;;;;;;;;28.25;28.00;14.80;99.90;;;;;;5059241;28;11698;-48
2022/01/27 00:40:14;;;;;;;;;36.00;33.00;14.80;99.90;;;;;;5063583;28;12270;-47
2022/01/27 00:42:45;;;;;;;;;33.75;32.00;14.80;99.90;;;;;;5055177;28;11588;-47
2022/01/27 00:45:16;;;;;;;;;37.00;33.50;14.80;99.90;;;;;;5058643;28;11604;-48
2022/01/27 00:47:47;;;;;;;;;38.50;35.50;14.80;99.90;;;;;;5063419;28;11702;-45
2022/01/27 00:50:19;;;;;;;;;40.25;36.25;14.70;99.90;;;;;;5079318;28;11721;-48
2022/01/27 00:52:54;;;;;;;;;34.75;32.75;14.70;99.90;;;;;;5058227;28;11557;-48
2022/01/27 00:55:26;;;;;;;;;39.75;35.50;14.70;99.90;;;;;;5064607;28;11571;-47
2022/01/27 00:58:17;;;;;;;;;38.25;35.00;14.70;99.90;;;;;;5065396;28;11600;-51
2022/01/27 01:00:55;;;;;;;;;40.75;36.50;14.70;99.90;;;;;;5058228;28;11658;-51
2022/01/27 01:03:35;;;;;;;;;44.25;38.75;14.70;99.90;;;;;;5056707;28;11569;-49
2022/01/27 01:09:33;;;;;;;;;36.25;33.50;14.70;99.90;;;;;;5058165;28;11585;-47
2022/01/27 01:33:20;;;;;;;;;40.50;36.25;14.70;99.90;;;;;;5058676;28;11545;-49
2022/01/27 01:36:01;;;;;;;;;42.25;37.00;14.70;99.90;;;;;;5061201;28;11605;-49
2022/01/27 01:38:32;;;;;;;;;43.50;37.75;14.60;99.90;;;;;;5060980;28;11693;-47
2022/01/27 01:41:02;;;;;;;;;39.25;36.00;14.60;99.90;;;;;;5060873;28;11620;-46
2022/01/27 01:43:33;;;;;;;;;43.00;37.25;14.60;99.90;;;;;;5061141;28;11614;-50
2022/01/27 01:46:04;;;;;;;;;40.50;36.25;14.60;99.90;;;;;;5065019;28;11541;-48
2022/01/27 01:48:34;;;;;;;;;42.50;36.75;14.60;99.90;;;;;;5066663;28;11559;-47
2022/01/27 01:51:05;;;;;;;;;39.75;35.75;14.60;99.90;;;;;;5061025;28;11587;-46
2022/01/27 01:53:39;;;;;;;;;37.25;34.50;14.60;99.90;;;;;;5051340;28;11591;-47
2022/01/27 01:56:09;;;;;;;;;42.75;36.25;14.50;99.90;;;;;;5056612;28;11587;-46
2022/01/27 01:58:39;;;;;;;;;44.50;37.00;14.50;99.90;;;;;;5055882;28;11715;-49
2022/01/27 02:01:11;;;;;;;;;40.75;35.75;14.50;99.90;;;;;;5059395;28;11594;-50
2022/01/27 02:03:41;;;;;;;;;42.25;37.25;14.50;99.90;;;;;;5052981;28;11744;-47
2022/01/27 02:06:23;;;;;;;;;43.75;38.25;14.50;99.90;;;;;;5057704;28;11564;-49
2022/01/27 02:20:09;;;;;;;;;40.50;35.50;14.40;99.90;;;;;;5059773;27;11639;-47
2022/01/27 02:22:40;;;;;;;;;43.25;38.25;14.30;99.90;;;;;;5064177;28;11538;-46
2022/01/27 02:25:11;;;;;;;;;43.25;38.00;14.30;99.90;;;;;;5051391;28;11605;-49
2022/01/27 02:27:42;;;;;;;;;46.25;39.00;14.30;99.90;;;;;;5067811;28;11607;-46
2022/01/27 02:30:14;;;;;;;;;47.25;40.25;14.30;99.90;;;;;;5057370;28;11611;-47
2022/01/27 02:32:45;;;;;;;;;46.25;39.75;14.30;99.90;;;;;;5066594;28;12315;-46
2022/01/27 02:35:16;;;;;;;;;43.00;38.00;14.20;99.90;;;;;;5052715;28;11605;-46
2022/01/27 02:37:46;;;;;;;;;41.00;36.75;14.20;99.90;;;;;;5061778;28;11591;-47
2022/01/27 02:40:28;;;;;;;;;41.75;37.25;14.20;99.90;;;;;;5057852;28;11553;-47
2022/01/27 02:42:58;;;;;;;;;42.25;37.25;14.20;99.90;;;;;;5061571;28;12311;-51
2022/01/27 02:46:06;;;;;;;;;47.25;40.25;14.10;99.90;;;;;;5065338;28;11588;-50
2022/01/27 02:48:37;;;;;;;;;45.50;37.75;14.20;99.90;;;;;;5045167;28;11551;-49
2022/01/27 02:51:07;;;;;;;;;44.75;39.25;14.10;99.90;;;;;;5061871;28;11558;-49
2022/01/27 02:53:39;;;;;;;;;40.50;35.50;14.10;99.90;;;;;;5061799;28;12334;-51
2022/01/27 02:56:10;;;;;;;;;43.00;37.25;14.10;99.90;;;;;;5061538;28;11678;-50
2022/01/27 02:58:42;;;;;;;;;47.50;40.00;14.00;99.90;;;;;;5069884;28;11721;-48
2022/01/27 03:01:17;;;;;;;;;46.75;40.00;14.00;99.90;;;;;;5053802;28;11702;-47
2022/01/27 03:03:48;;;;;;;;;46.50;38.25;14.00;99.90;;;;;;5059018;28;11580;-47
2022/01/27 03:06:19;;;;;;;;;44.75;37.50;14.00;99.90;;;;;;5061862;28;11720;-46
2022/01/27 03:08:50;;;;;;;;;41.00;36.50;14.00;99.90;;;;;;5058183;28;12328;-45
2022/01/27 03:11:47;;;;;;;;;47.00;40.75;13.90;99.90;;;;;;5054160;28;11580;-51
2022/01/27 03:14:21;;;;;;;;;48.00;41.25;13.90;99.90;;;;;;5061301;28;11602;-47
2022/01/27 03:16:58;;;;;;;;;42.75;38.00;13.90;99.90;;;;;;5054686;28;11587;-50
2022/01/27 03:19:29;;;;;;;;;42.50;38.00;13.80;99.90;;;;;;5062757;28;11564;-45
2022/01/27 03:22:02;;;;;;;;;45.25;38.00;13.80;99.90;;;;;;5055958;28;12353;-48
2022/01/27 03:24:34;;;;;;;;;46.00;39.00;13.80;99.90;;;;;;5058965;28;12137;-50
2022/01/27 03:27:17;;;;;;;;;48.25;39.75;13.80;99.90;;;;;;5054404;28;11551;-52
2022/01/27 03:29:48;;;;;;;;;40.25;36.50;13.80;99.90;;;;;;5055861;28;11857;-50
2022/01/27 03:32:19;;;;;;;;;47.50;41.00;13.70;99.90;;;;;;5060805;28;11553;-48
2022/01/27 03:34:50;;;;;;;;;47.75;40.00;13.70;99.90;;;;;;5052790;28;12315;-49
2022/01/27 03:37:20;;;;;;;;;48.25;41.00;13.70;99.90;;;;;;5058629;28;11635;-47
2022/01/27 03:39:51;;;;;;;;;49.50;42.25;13.70;99.90;;;;;;5053677;28;12267;-48
2022/01/27 03:42:22;;;;;;;;;45.50;38.50;13.70;99.90;;;;;;5056587;28;11673;-50
2022/01/27 03:44:53;;;;;;;;;48.25;40.25;13.70;99.90;;;;;;5057401;28;11558;-48
2022/01/27 03:47:24;;;;;;;;;46.50;40.00;13.60;99.90;;;;;;5063155;28;11553;-50
2022/01/27 03:49:54;;;;;;;;;50.50;43.00;13.60;99.90;;;;;;5052004;28;11595;-47
2022/01/27 03:52:25;;;;;;;;;47.75;39.25;13.60;99.90;;;;;;5065234;28;12289;-46
2022/01/27 03:54:56;;;;;;;;;49.50;41.25;13.60;99.90;;;;;;5056071;28;11581;-50
2022/01/27 03:57:27;;;;;;;;;47.00;39.75;13.60;99.90;;;;;;5058589;28;11572;-48
2022/01/27 03:59:58;;;;;;;;;43.50;37.00;13.50;99.90;;;;;;5052237;28;11579;-50
2022/01/27 04:02:30;;;;;;;;;45.50;39.50;13.50;99.90;;;;;;5061031;27;11639;-49
2022/01/27 04:05:01;;;;;;;;;47.75;41.25;13.50;99.90;;;;;;5062228;28;12341;-50
2022/01/27 04:07:32;;;;;;;;;45.25;38.00;13.50;99.90;;;;;;5061709;28;12286;-50
2022/01/27 04:10:02;;;;;;;;;42.25;37.00;13.50;99.90;;;;;;5053477;28;11555;-46
2022/01/27 04:12:35;;;;;;;;;46.50;40.00;13.40;99.90;;;;;;5059633;28;11632;-49
2022/01/27 04:15:06;;;;;;;;;52.00;44.25;13.40;99.90;;;;;;5064619;28;11599;-50
2022/01/27 04:17:36;;;;;;;;;51.25;43.00;13.40;99.90;;;;;;5061808;28;12247;-48
2022/01/27 04:20:08;;;;;;;;;47.25;40.25;13.40;99.90;;;;;;5052404;28;13571;-51
2022/01/27 04:22:38;;;;;;;;;47.75;41.00;13.30;99.90;;;;;;5057225;28;11645;-52
2022/01/27 04:25:11;;;;;;;;;44.00;38.75;13.20;99.90;;;;;;5054422;28;11592;-50
2022/01/27 04:27:49;;;;;;;;;51.75;43.50;13.20;99.90;;;;;;5055275;28;11670;-51
2022/01/27 04:30:23;;;;;;;;;46.50;40.00;13.20;99.90;;;;;;5052036;28;11580;-50
2022/01/27 04:32:58;;;;;;;;;50.50;43.50;13.20;99.90;;;;;;5058802;28;11571;-47
2022/01/27 04:35:34;;;;;;;;;22.75;22.00;13.20;99.90;;;;;;5052642;28;11574;-51
2022/01/27 04:40:51;;;;;;;;;53.25;44.25;13.20;99.90;;;;;;5056571;28;12316;-48
2022/01/27 04:43:41;;;;;;;;;51.33;43.33;13.10;99.90;;;;;;5059860;28;11566;-49
2022/01/27 04:48:51;;;;;;;;;50.00;42.00;13.00;99.90;;;;;;5064589;28;11611;-49
2022/01/27 04:51:23;;;;;;;;;47.00;41.00;13.00;99.90;;;;;;5055479;28;11524;-50
2022/01/27 04:56:27;;;;;;;;;49.00;41.75;12.90;99.90;;;;;;5060050;28;11542;-50
2022/01/27 04:59:03;;;;;;;;;50.25;42.75;12.90;99.90;;;;;;5059023;28;11619;-48
2022/01/27 05:01:42;;;;;;;;;53.00;45.25;12.90;99.90;;;;;;5058273;28;11762;-49
2022/01/27 05:04:16;;;;;;;;;52.00;43.50;12.80;99.90;;;;;;5060812;28;11567;-48
2022/01/27 05:06:49;;;;;;;;;50.00;42.50;12.80;99.90;;;;;;5063935;28;11601;-51
2022/01/27 05:09:23;;;;;;;;;50.00;42.75;12.80;99.90;;;;;;5055298;28;11565;-50
2022/01/27 05:12:10;;;;;;;;;43.25;38.75;12.80;99.90;;;;;;5051303;27;11558;-48
2022/01/27 05:14:41;;;;;;;;;51.67;41.67;12.80;99.90;;;;;;5056848;28;11590;-48
2022/01/27 05:17:12;;;;;;;;;48.75;41.50;12.80;99.90;;;;;;5052389;28;11586;-49
2022/01/27 05:19:42;;;;;;;;;48.25;40.00;12.70;99.90;;;;;;5056881;28;11612;-48
2022/01/27 05:22:12;;;;;;;;;47.25;40.75;12.70;99.90;;;;;;5049921;28;11581;-49
2022/01/27 05:24:44;;;;;;;;;47.75;41.50;12.70;99.90;;;;;;5050388;28;11585;-48
2022/01/27 05:27:14;;;;;;;;;39.75;35.75;12.60;99.90;;;;;;5057170;28;11559;-48
2022/01/27 05:29:45;;;;;;;;;51.33;43.00;12.60;99.90;;;;;;5059346;28;11590;-49
2022/01/27 05:32:15;;;;;;;;;47.00;41.00;12.60;99.90;;;;;;5051237;28;11606;-48
2022/01/27 05:34:46;;;;;;;;;49.50;42.25;12.50;99.90;;;;;;5057522;28;11687;-48
2022/01/27 05:37:17;;;;;;;;;42.50;36.50;12.50;99.90;;;;;;5065147;28;11742;-49
2022/01/27 05:39:49;;;;;;;;;43.50;39.00;12.50;99.90;;;;;;5060029;28;11520;-50
2022/01/27 05:42:20;;;;;;;;;45.25;39.75;12.40;99.90;;;;;;5064631;28;12340;-49
2022/01/27 05:44:51;;;;;;;;;47.25;41.00;12.50;99.90;;;;;;5061413;28;11621;-51
2022/01/27 05:47:22;;;;;;;;;49.33;43.00;12.50;99.90;;;;;;5057332;28;11589;-48
2022/01/27 05:49:53;;;;;;;;;47.75;41.25;12.40;99.90;;;;;;5061522;28;12465;-50
2022/01/27 05:52:24;;;;;;;;;42.50;38.00;12.40;99.90;;;;;;5062265;28;11590;-49
2022/01/27 05:54:55;;;;;;;;;53.33;46.33;12.30;99.90;;;;;;5061098;28;11579;-50
2022/01/27 05:57:26;;;;;;;;;48.75;42.00;12.30;99.90;;;;;;5058355;28;8860;-48
2022/01/27 05:59:57;;;;;;;;;39.67;36.33;12.20;99.90;;;;;;5067241;28;12077;-50
2022/01/27 06:02:27;;;;;;;;;34.00;33.00;12.30;99.90;;;;;;5064691;28;8869;-48
2022/01/27 06:05:02;;;;;;;;;42.33;38.00;12.30;99.90;;;;;;5060784;28;8848;-49
2022/01/27 06:07:35;;;;;;;;;45.67;39.67;12.20;99.90;;;;;;5061014;28;8862;-48
2022/01/27 06:10:06;;;;;;;;;46.67;40.67;12.20;99.90;;;;;;5059767;28;8874;-49
2022/01/27 06:12:48;;;;;;;;;45.67;38.33;12.20;99.90;;;;;;5058587;28;9558;-45
2022/01/27 06:15:22;;;;;;;;;44.67;39.67;12.10;99.90;;;;;;5059517;28;8860;-48
2022/01/27 06:17:54;;;;;;;;;46.67;40.33;12.00;99.90;;;;;;5061232;28;8821;-47
2022/01/27 06:20:29;;;;;;;;;44.00;38.67;12.00;99.90;;;;;;5056357;28;8842;-49
2022/01/27 06:23:00;;;;;;;;;43.67;37.67;12.00;99.90;;;;;;5053219;28;8816;-48
2022/01/27 06:25:34;;;;;;;;;37.00;34.67;11.90;99.90;;;;;;5061111;28;8847;-48
2022/01/27 06:28:05;;;;;;;;;38.67;35.33;12.00;99.90;;;;;;5062870;28;8856;-47
2022/01/27 06:30:36;;;;;;;;;38.67;36.00;12.00;99.90;;;;;;5061141;28;8828;-50
2022/01/27 06:33:11;;;;;;;;;44.33;38.67;11.90;99.90;;;;;;5053899;28;8848;-47
2022/01/27 06:35:41;;;;;;;;;41.67;38.00;11.90;99.90;;;;;;5060811;28;8869;-45
2022/01/27 06:38:13;;;;;;;;;46.33;40.00;11.90;99.90;;;;;;5054605;28;9439;-47
2022/01/27 06:40:44;;;;;;;;;52.00;44.00;11.90;99.90;;;;;;5057110;28;9210;-46
2022/01/27 06:43:15;;;;;;;;;50.67;43.67;11.80;99.90;;;;;;5061667;28;8868;-49
2022/01/27 06:45:45;;;;;;;;;47.00;41.00;11.80;99.90;;;;;;5063744;28;8848;-48
2022/01/27 06:48:16;;;;;;;;;50.33;42.33;11.80;99.90;;;;;;5062261;28;8840;-48
2022/01/27 06:50:52;;;;;;;;;46.33;40.00;11.80;99.90;;;;;;5061186;28;8822;-52
2022/01/27 06:53:25;;;;;;;;;50.00;42.33;11.70;99.90;;;;;;5059953;28;8855;-48
2022/01/27 06:55:56;;;;;;;;;52.00;44.00;11.70;99.90;;;;;;5066707;28;8819;-52
2022/01/27 06:58:28;;;;;;;;;51.67;44.33;11.60;99.90;;;;;;5058077;28;8836;-50
2022/01/27 07:01:00;;;;;;;;;52.00;43.00;11.50;99.90;;;;;;5058789;28;8878;-45
2022/01/27 07:03:35;;;;;;;;;53.33;45.67;11.50;99.90;;;;;;5061517;28;9562;-48
2022/01/27 07:06:05;;;;;;;;;52.67;45.33;11.50;99.90;;;;;;5063730;28;9008;-47
2022/01/27 07:08:35;;;;;;;;;46.67;41.33;11.50;99.90;;;;;;5053322;28;9753;-51
2022/01/27 07:11:06;;;;;;;;;47.33;41.00;11.50;99.90;;;;;;5066417;28;8874;-47
2022/01/27 07:13:40;;;;;;;;;42.00;38.33;11.50;99.90;;;;;;5059197;28;9561;-50
2022/01/27 07:16:11;;;;;;;;;41.00;37.00;11.50;99.90;;;;;;5063700;28;8945;-51
2022/01/27 07:18:41;;;;;;;;;46.33;39.67;11.50;99.90;;;;;;5055881;28;8873;-49
2022/01/27 07:21:11;;;;;;;;;43.33;38.33;11.50;99.90;;;;;;5061646;28;8858;-46
2022/01/27 07:23:41;;;;;;;;;42.00;34.67;11.50;99.90;;;;;;5053037;28;11517;-49
2022/01/27 07:26:11;;;;;;;;;39.33;36.33;11.40;99.90;;;;;;5062991;28;8853;-49
2022/01/27 07:28:42;;;;;;;;;42.25;39.00;11.40;99.90;;;;;;5061315;28;8927;-48
2022/01/27 07:31:15;;;;;;;;;40.67;38.00;11.40;99.90;;;;;;5040089;28;11480;-47
2022/01/27 07:33:47;;;;;;;;;41.67;38.67;11.30;99.90;;;;;;5055574;28;8810;-49
2022/01/27 07:36:20;;;;;;;;;38.00;33.67;11.30;99.90;;;;;;5063215;28;11507;-45
2022/01/27 07:38:51;;;;;;;;;40.00;37.00;11.30;99.90;;;;;;5050558;28;11744;-47
2022/01/27 07:41:22;;;;;;;;;38.00;33.67;11.30;99.90;;;;;;5055032;28;8841;-50
2022/01/27 07:43:53;;;;;;;;;41.33;38.33;11.30;99.90;;;;;;5061272;28;8966;-50
2022/01/27 07:46:24;;;;;;;;;44.33;39.00;11.20;99.90;;;;;;5059262;28;8809;-50
2022/01/27 07:48:56;;;;;;;;;40.33;37.00;11.20;99.90;;;;;;5054356;28;11705;-50
2022/01/27 07:51:26;;;;;;;;;42.67;38.67;11.20;99.90;;;;;;5034950;28;12041;-50
2022/01/27 07:53:57;;;;;;;;;34.00;33.67;11.10;99.90;;;;;;5032410;28;8851;-50
2022/01/27 07:56:33;;;;;;;;;46.33;40.33;11.10;99.90;;;;;;5038338;28;11751;-52
2022/01/27 07:59:04;;;;;;;;;34.00;33.33;11.00;99.90;;;;;;5044463;28;8859;-50
2022/01/27 08:01:36;;;;;;;;;37.67;35.33;11.00;99.90;;;;;;5034843;28;12368;-45
2022/01/27 08:04:08;;;;;;;;;44.00;39.33;11.00;99.90;;;;;;5035595;28;11615;-48
2022/01/27 08:06:39;;;;;;;;;39.33;37.00;11.00;99.90;;;;;;5037000;28;8866;-46
2022/01/27 08:09:09;;;;;;;;;39.33;37.00;11.00;99.90;;;;;;5032646;28;11743;-47
2022/01/27 08:11:40;;;;;;;;;41.33;37.00;11.00;99.90;;;;;;5036469;28;11694;-46
2022/01/27 08:14:10;;;;;;;;;31.00;31.00;11.00;99.90;;;;;;5038307;28;8885;-46
2022/01/27 08:16:41;;;;;;;;;37.33;36.00;10.90;99.90;;;;;;5031495;28;8858;-48
2022/01/27 08:19:12;;;;;;;;;45.00;39.00;10.90;99.90;;;;;;5034944;28;11644;-47
2022/01/27 08:21:43;;;;;;;;;41.33;38.00;10.90;99.90;;;;;;5036786;28;8832;-50
2022/01/27 08:24:15;;;;;;;;;33.33;31.67;10.90;99.90;;;;;;5033745;28;8861;-48
2022/01/27 08:26:49;;;;;;;;;39.33;36.00;10.80;99.90;;;;;;5037672;28;12333;-48
2022/01/27 08:29:23;;;;;;;;;37.33;36.00;10.80;99.90;;;;;;5034001;28;8844;-50
2022/01/27 08:32:19;;;;;;;;;37.00;34.33;10.80;99.90;;;;;;5036378;28;8846;-47
2022/01/27 08:34:50;;;;;;;;;39.00;37.00;10.80;99.90;;;;;;5038002;28;11582;-47
2022/01/27 08:37:21;;;;;;;;;44.00;39.00;10.70;99.90;;;;;;5039629;28;8853;-44
2022/01/27 08:39:52;;;;;;;;;40.00;37.00;10.70;99.90;;;;;;5041010;28;8871;-45
2022/01/27 08:42:22;;;;;;;;;38.67;35.33;10.70;99.90;;;;;;5044526;28;12063;-45
2022/01/27 08:44:53;;;;;;;;;41.00;37.67;10.70;99.90;;;;;;5038165;28;8969;-46
2022/01/27 08:47:24;;;;;;;;;39.67;36.67;10.70;99.90;;;;;;5042749;28;9584;-49
2022/01/27 08:49:56;;;;;;;;;35.00;34.00;10.60;99.90;;;;;;5039400;28;8842;-46
2022/01/27 08:52:28;;;;;;;;;34.33;34.00;10.60;99.90;;;;;;5035896;28;8861;-47
2022/01/27 08:54:59;;;;;;;;;37.67;36.00;10.60;99.90;;;;;;5044635;28;8847;-44
2022/01/27 08:57:34;;;;;;;;;36.33;34.00;10.60;99.90;;;;;;5040628;28;12372;-47
2022/01/27 09:00:11;;;;;;;;;41.00;36.67;10.60;99.90;;;;;;5044650;28;11591;-50
2022/01/27 09:02:41;;;;;;;;;33.25;31.00;10.60;99.90;;;;;;5039186;28;8881;-48
2022/01/27 09:05:11;;;;;;;;;39.33;37.00;10.50;99.90;;;;;;5039723;28;11576;-50
2022/01/27 09:07:44;;;;;;;;;32.67;32.67;10.50;99.90;;;;;;5038289;28;9023;-46
2022/01/27 09:10:15;;;;;;;;;33.67;33.67;10.40;99.90;;;;;;5038615;28;9534;-50
2022/01/27 09:12:46;;;;;;;;;33.67;33.33;10.40;99.90;;;;;;5037732;28;8847;-49
2022/01/27 09:15:16;;;;;;;;;36.33;34.33;10.40;99.90;;;;;;5038071;28;11548;-48
2022/01/27 09:17:47;;;;;;;;;35.33;33.33;10.40;99.90;;;;;;5039708;28;8823;-46
2022/01/27 09:20:18;;;;;;;;;34.33;32.00;10.40;99.90;;;;;;5035758;28;8913;-50
2022/01/27 09:22:52;;;;;;;;;27.67;27.67;10.40;99.90;;;;;;5034515;28;8897;-48
2022/01/27 09:25:31;;;;;;;;;36.33;34.67;10.30;99.90;;;;;;5036294;28;11739;-47
2022/01/27 09:28:02;;;;;;;;;31.33;31.33;10.30;99.90;;;;;;5035779;28;8939;-49
2022/01/27 09:30:33;;;;;;;;;30.00;30.00;10.30;99.90;;;;;;5038545;28;8884;-51
2022/01/27 09:33:04;;;;;;;;;32.67;30.67;10.30;99.90;;;;;;5038299;28;11572;-47
2022/01/27 09:35:35;;;;;;;;;32.67;32.67;10.30;99.90;;;;;;5037014;28;8861;-48
2022/01/27 09:38:05;;;;;;;;;35.00;34.00;10.20;99.90;;;;;;5031790;28;9012;-47
2022/01/27 09:40:37;;;;;;;;;32.67;32.67;10.20;99.90;;;;;;5039399;28;8848;-49
2022/01/27 09:43:07;;;;;;;;;28.33;27.67;10.20;99.90;;;;;;5036575;28;8901;-48
2022/01/27 09:45:39;;;;;;;;;35.33;34.33;10.20;99.90;;;;;;5037519;28;8877;-46
2022/01/27 09:48:16;;;;;;;;;32.67;32.67;10.20;99.90;;;;;;5044544;28;11685;-48
2022/01/27 09:51:00;;;;;;;;;29.33;28.33;10.10;99.90;;;;;;5031467;28;9509;-48
2022/01/27 09:53:32;;;;;;;;;27.00;26.33;10.10;99.90;;;;;;5033254;28;11669;-47
2022/01/27 09:56:03;;;;;;;;;29.67;29.67;10.10;99.90;;;;;;5035484;28;11601;-50
2022/01/27 09:58:45;;;;;;;;;32.33;32.33;10.10;99.90;;;;;;5040691;28;11708;-47
2022/01/27 10:01:16;;;;;;;;;31.33;31.33;10.10;99.90;;;;;;5041367;28;9017;-45
2022/01/27 10:04:16;;;;;;;;;28.33;28.33;10.00;99.90;;;;;;5035749;28;8857;-49
2022/01/27 10:06:48;;;;;;;;;30.67;30.67;10.00;99.90;;;;;;5027427;28;11528;-47
2022/01/27 10:09:29;;;;;;;;;31.33;29.00;10.00;99.90;;;;;;5036749;28;9544;-48
2022/01/27 10:12:04;;;;;;;;;27.75;27.75;10.00;99.90;;;;;;5038559;28;11571;-49
2022/01/27 10:14:38;;;;;;;;;31.00;31.00;10.00;99.90;;;;;;5037276;28;11550;-46
2022/01/27 10:17:13;;;;;;;;;28.00;28.00;10.00;99.90;;;;;;5035604;28;11601;-48
2022/01/27 10:19:54;;;;;;;;;24.33;24.33;9.90;99.90;;;;;;5033224;28;8897;-47
2022/01/27 10:22:25;;;;;;;;;30.00;30.00;9.90;99.90;;;;;;5033468;28;11628;-50
2022/01/27 10:25:12;;;;;;;;;31.33;31.33;9.90;99.90;;;;;;5035393;28;11562;-48
2022/01/27 10:33:03;;;;;;;;;30.67;30.00;9.80;99.90;;;;;;5036461;28;11666;-48
2022/01/27 10:35:35;;;;;;;;;33.33;33.00;9.80;99.90;;;;;;5017426;28;8844;-48
2022/01/27 10:38:12;;;;;;;;;28.33;26.67;9.80;99.90;;;;;;5008898;28;9026;-48
2022/01/27 10:40:47;;;;;;;;;27.33;27.33;9.80;99.90;;;;;;5034007;28;8861;-48
2022/01/27 10:43:22;;;;;;;;;34.00;31.00;9.80;99.90;;;;;;5031905;28;11593;-48
2022/01/27 10:48:51;;;;;;;;;38.67;36.00;9.70;99.90;;;;;;5029642;28;11774;-50
2022/01/27 10:51:26;;;;;;;;;27.33;27.00;9.70;99.90;;;;;;5036928;28;8909;-48
2022/01/27 10:56:38;;;;;;;;;30.67;30.67;9.60;99.90;;;;;;5054100;28;8847;-48
2022/01/27 10:59:13;;;;;;;;;31.67;31.67;9.60;99.90;;;;;;5059371;28;9006;-46
2022/01/27 11:01:46;;;;;;;;;29.33;29.33;9.60;99.90;;;;;;5057669;28;8896;-46
2022/01/27 11:04:19;;;;;;;;;34.33;31.67;9.60;99.90;;;;;;5055391;28;8877;-45
2022/01/27 11:07:01;;;;;;;;;33.67;33.67;9.60;99.90;;;;;;5054780;28;8858;-46
2022/01/27 11:09:34;;;;;;;;;22.00;21.00;9.50;99.90;;;;;;5055636;28;8850;-46
2022/01/27 11:12:12;;;;;;;;;29.67;29.67;9.50;99.90;;;;;;5061185;28;8855;-45
2022/01/27 11:14:48;;;;;;;;;29.33;29.33;9.50;99.90;;;;;;5057291;28;8842;-45
2022/01/27 11:17:19;;;;;;;;;33.33;32.67;9.50;99.90;;;;;;5061091;28;8874;-49
2022/01/27 11:27:39;;;;;;;;;34.67;34.00;9.30;99.90;;;;;;5044853;28;8896;-47
2022/01/27 11:30:41;;;;;;;;;27.67;27.67;9.30;99.90;;;;;;5051935;28;8842;-48
2022/01/27 11:33:16;;;;;;;;;32.67;30.67;9.30;99.90;;;;;;5045039;28;8846;-51
2022/01/27 11:36:14;;;;;;;;;29.67;29.67;9.30;99.90;;;;;;5060638;28;8827;-46
2022/01/27 11:38:45;;;;;;;;;27.00;27.00;9.30;99.90;;;;;;5054777;28;8848;-47
2022/01/27 11:41:40;;;;;;;;;27.33;27.33;9.20;99.90;;;;;;5055690;28;8854;-49
2022/01/27 11:44:36;;;;;;;;;31.00;29.33;9.20;99.90;;;;;;5088679;27;8835;-48
2022/01/27 11:47:16;;;;;;;;;30.67;30.67;9.20;99.90;;;;;;5054532;28;11609;-50
2022/01/27 11:50:22;;;;;;;;;24.67;23.33;9.20;99.90;;;;;;5059231;28;8833;-50
2022/01/27 11:52:56;;;;;;;;;32.67;32.67;9.10;99.90;;;;;;5049861;28;11555;-51
2022/01/27 11:55:26;;;;;;;;;26.00;26.00;9.10;99.90;;;;;;5051710;28;9565;-48
2022/01/27 11:58:12;;;;;;;;;29.33;29.33;9.10;99.90;;;;;;5056093;28;9402;-49
2022/01/27 12:01:14;;;;;;;;;32.67;30.67;9.10;99.90;;;;;;5059763;28;8993;-48
2022/01/27 12:04:06;;;;;;;;;33.00;31.33;9.10;99.90;;;;;;5067079;28;8885;-48
2022/01/27 12:06:43;;;;;;;;;33.33;33.33;9.10;99.90;;;;;;5050382;28;9087;-47
2022/01/27 12:09:20;;;;;;;;;30.67;30.67;9.00;99.90;;;;;;5060382;28;8828;-51
2022/01/27 12:12:00;;;;;;;;;20.67;19.33;9.00;99.90;;;;;;5063827;28;8887;-49
2022/01/27 12:14:35;;;;;;;;;30.33;30.33;9.00;99.90;;;;;;5063562;28;8854;-48
2022/01/27 12:17:08;;;;;;;;;30.00;30.00;9.00;99.90;;;;;;5064916;28;8911;-50
2022/01/27 12:20:13;;;;;;;;;29.33;29.33;9.00;99.90;;;;;;5059537;28;8989;-49
2022/01/27 12:22:48;;;;;;;;;28.00;27.33;8.90;99.90;;;;;;5007087;28;8848;-50
2022/01/27 12:25:21;;;;;;;;;27.33;27.33;8.90;99.90;;;;;;5057664;28;8865;-47
2022/01/27 12:27:58;;;;;;;;;27.00;27.00;8.90;99.90;;;;;;5067443;28;9667;-50
2022/01/27 12:30:28;;;;;;;;;28.67;28.67;8.90;99.90;;;;;;5055163;28;8855;-48
2022/01/27 12:33:00;;;;;;;;;19.67;19.67;8.90;99.90;;;;;;5063602;28;9570;-47
2022/01/27 12:35:31;;;;;;;;;25.67;24.00;8.90;99.90;;;;;;5059040;28;8846;-48
2022/01/27 12:38:02;;;;;;;;;28.67;27.00;8.90;99.90;;;;;;5057309;28;8826;-48
2022/01/27 12:40:33;;;;;;;;;27.00;23.67;8.90;99.90;;;;;;5056512;28;9385;-48
2022/01/27 12:43:12;;;;;;;;;29.33;29.33;8.90;99.90;;;;;;5064203;28;8973;-49
2022/01/27 12:45:44;;;;;;;;;26.67;26.67;8.90;99.90;;;;;;5059340;28;8979;-49
2022/01/27 12:48:24;;;;;;;;;29.67;29.67;8.90;99.90;;;;;;5057692;28;8972;-48
2022/01/27 12:51:01;;;;;;;;;25.00;25.00;8.80;99.90;;;;;;5080595;27;8881;-46
2022/01/27 12:53:35;;;;;;;;;21.00;21.00;8.80;99.90;;;;;;5058206;28;8889;-47
2022/01/27 12:56:10;;;;;;;;;22.33;22.33;8.80;99.90;;;;;;5058113;28;8892;-49
2022/01/27 12:58:40;;;;;;;;;21.33;21.33;8.80;99.90;;;;;;5065528;28;11538;-49
2022/01/27 13:01:12;;;;;;;;;29.00;29.00;8.80;99.90;;;;;;5058289;28;8986;-48
2022/01/27 13:04:00;;;;;;;;;25.67;25.67;8.80;99.90;;;;;;5059696;28;8839;-48
2022/01/27 13:06:31;;;;;;;;;28.00;28.00;8.80;99.90;;;;;;5056085;28;9019;-45
2022/01/27 13:09:13;;;;;;;;;25.33;25.33;8.70;99.90;;;;;;5066490;28;8990;-52
2022/01/27 13:11:43;;;;;;;;;23.33;23.33;8.70;99.90;;;;;;5054669;28;8908;-51
2022/01/27 13:14:14;;;;;;;;;23.67;23.67;8.70;99.90;;;;;;5058632;28;8861;-48
2022/01/27 13:16:50;;;;;;;;;24.33;24.33;8.70;99.90;;;;;;5059097;28;8943;-51
2022/01/27 13:19:39;;;;;;;;;16.67;16.67;8.70;99.90;;;;;;5053880;28;8867;-49
2022/01/27 13:22:16;;;;;;;;;27.00;25.33;8.70;99.90;;;;;;5055897;28;9615;-46
2022/01/27 13:24:51;;;;;;;;;25.75;25.75;8.60;99.90;;;;;;5054476;28;8866;-46
2022/01/27 13:27:22;;;;;;;;;18.00;18.00;8.60;99.90;;;;;;5062349;28;11558;-48
2022/01/27 13:29:57;;;;;;;;;29.33;28.67;8.60;99.90;;;;;;5052280;28;11541;-46
2022/01/27 13:32:29;;;;;;;;;26.00;23.67;8.60;99.90;;;;;;5055792;28;8841;-47
2022/01/27 13:35:00;;;;;;;;;20.67;20.00;8.60;99.90;;;;;;5058828;28;8834;-48
2022/01/27 13:37:36;;;;;;;;;28.00;26.00;8.60;99.90;;;;;;5057397;28;9538;-50
2022/01/27 13:42:57;;;;;;;;;24.67;24.67;8.60;99.90;;;;;;5061082;28;8849;-50
2022/01/27 13:45:36;;;;;;;;;28.67;28.00;8.60;99.90;;;;;;5051297;28;9580;-51
2022/01/27 13:48:23;;;;;;;;;26.67;26.33;8.50;99.90;;;;;;5053771;28;8860;-50
2022/01/27 13:50:59;;;;;;;;;31.00;28.67;8.50;99.90;;;;;;5056361;28;8993;-49
2022/01/27 13:53:30;;;;;;;;;27.33;27.33;8.40;99.90;;;;;;5053642;28;8850;-49
2022/01/27 13:56:05;;;;;;;;;24.00;24.00;8.40;99.90;;;;;;5059634;28;8823;-51
2022/01/27 13:58:35;;;;;;;;;26.33;26.00;8.50;99.90;;;;;;5055830;28;9530;-48
2022/01/27 14:01:13;;;;;;;;;27.00;24.33;8.50;99.90;;;;;;5055601;28;9644;-49
2022/01/27 14:03:47;;;;;;;;;24.67;24.00;8.50;99.90;;;;;;5056918;28;8874;-49
2022/01/27 14:06:18;;;;;;;;;26.00;26.00;8.50;99.90;;;;;;5058834;28;8892;-50
2022/01/27 14:08:55;;;;;;;;;23.33;23.33;8.50;99.90;;;;;;5057719;28;8972;-47
2022/01/27 14:11:36;;;;;;;;;18.67;18.00;8.40;99.90;;;;;;5059805;28;8886;-47
2022/01/27 14:14:07;;;;;;;;;24.00;24.00;8.50;99.90;;;;;;5052199;28;8852;-51
2022/01/27 14:16:38;;;;;;;;;23.33;23.33;8.40;99.90;;;;;;5061037;28;8835;-52